sensor_id;sensor_type;location;lat;lon;timestamp;pressure;altitude;pressure_sealevel;temperature;humidity
6198;BME280;3132;42.622;23.328;2023-01-28T08:37:10;92446.28;;;-0.06;95.12
6198;BME280;3132;42.622;23.328;2023-01-28T08:39:36;92437.88;;;0.17;93.50
6198;BME280;3132;42.622;23.328;2023-01-28T08:42:01;92429.84;;;0.13;94.01
6198;BME280;3132;42.622;23.328;2023-01-28T08:44:26;92451.06;;;0.20;93.19
6198;BME280;3132;42.622;23.328;2023-01-28T08:46:52;92406.78;;;-0.28;94.13
6198;BME280;3132;42.622;23.328;2023-01-28T08:49:17;92385.03;;;-0.26;93.31
6198;BME280;3132;42.622;23.328;2023-01-28T08:51:43;92442.75;;;-0.05;93.94
6198;BME280;3132;42.622;23.328;2023-01-28T08:54:08;92424.31;;;-0.14;94.04
6198;BME280;3132;42.622;23.328;2023-01-28T08:56:33;92405.53;;;0.27;93.38
6198;BME280;3132;42.622;23.328;2023-01-28T08:58:59;92431.47;;;0.37;90.72
6198;BME280;3132;42.622;23.328;2023-01-28T09:01:24;92425.84;;;0.29;91.07
6198;BME280;3132;42.622;23.328;2023-01-28T09:03:51;92408.72;;;-0.01;90.87
6198;BME280;3132;42.622;23.328;2023-01-28T09:06:16;92452.31;;;0.41;91.81
6198;BME280;3132;42.622;23.328;2023-01-28T09:08:42;92422.09;;;0.31;91.18
6198;BME280;3132;42.622;23.328;2023-01-28T09:11:07;92458.81;;;0.55;91.31
6198;BME280;3132;42.622;23.328;2023-01-28T09:13:33;92463.25;;;0.25;92.05
6198;BME280;3132;42.622;23.328;2023-01-28T09:15:58;92445.72;;;0.33;92.33
6198;BME280;3132;42.622;23.328;2023-01-28T09:18:23;92460.94;;;0.58;92.23
6198;BME280;3132;42.622;23.328;2023-01-28T09:20:49;92463.09;;;0.84;91.16
6198;BME280;3132;42.622;23.328;2023-01-28T09:23:14;92469.31;;;0.53;91.44
6198;BME280;3132;42.622;23.328;2023-01-28T09:25:40;92434.75;;;0.15;92.74
6198;BME280;3132;42.622;23.328;2023-01-28T09:28:06;92459.03;;;0.42;92.53
6198;BME280;3132;42.622;23.328;2023-01-28T09:30:32;92456.13;;;0.38;92.54
6198;BME280;3132;42.622;23.328;2023-01-28T09:32:57;92432.88;;;0.33;92.15
6198;BME280;3132;42.622;23.328;2023-01-28T09:35:23;92455.25;;;0.56;92.17
6198;BME280;3132;42.622;23.328;2023-01-28T09:37:48;92446.50;;;0.34;93.22
6198;BME280;3132;42.622;23.328;2023-01-28T09:45:52;92457.03;;;1.01;92.81
6198;BME280;3132;42.622;23.328;2023-01-28T09:48:21;92465.19;;;0.52;92.95
6198;BME280;3132;42.622;23.328;2023-01-28T09:50:50;92465.16;;;0.41;93.71
6198;BME280;3132;42.622;23.328;2023-01-28T09:53:20;92456.00;;;0.33;93.79
6198;BME280;3132;42.622;23.328;2023-01-28T09:55:49;92430.19;;;0.28;93.27
6198;BME280;3132;42.622;23.328;2023-01-28T09:58:17;92439.06;;;0.55;92.52
6198;BME280;3132;42.622;23.328;2023-01-28T10:09:18;92437.72;;;0.64;91.28
6198;BME280;3132;42.622;23.328;2023-01-28T10:17:35;92397.50;;;0.35;92.71
6198;BME280;3132;42.622;23.328;2023-01-28T10:22:42;92448.56;;;0.66;92.70
6198;BME280;3132;42.622;23.328;2023-01-28T10:25:29;92429.69;;;0.49;93.69
6198;BME280;3132;42.622;23.328;2023-01-28T10:27:54;92456.25;;;0.55;94.74
6198;BME280;3132;42.622;23.328;2023-01-28T10:30:30;92453.22;;;0.58;94.59
6198;BME280;3132;42.622;23.328;2023-01-28T10:33:03;92426.63;;;0.41;94.02
6198;BME280;3132;42.622;23.328;2023-01-28T10:35:36;92424.09;;;0.52;94.68
6198;BME280;3132;42.622;23.328;2023-01-28T10:38:05;92450.44;;;0.48;95.20
6198;BME280;3132;42.622;23.328;2023-01-28T10:40:33;92444.59;;;0.29;95.57
6198;BME280;3132;42.622;23.328;2023-01-28T10:42:59;92449.75;;;0.29;95.73
6198;BME280;3132;42.622;23.328;2023-01-28T10:45:28;92448.16;;;0.28;95.91
6198;BME280;3132;42.622;23.328;2023-01-28T10:48:12;92437.22;;;0.21;96.77
6198;BME280;3132;42.622;23.328;2023-01-28T10:50:53;92446.31;;;0.47;96.73
6198;BME280;3132;42.622;23.328;2023-01-28T10:53:33;92417.13;;;0.30;94.72
6198;BME280;3132;42.622;23.328;2023-01-28T10:55:59;92438.63;;;0.58;95.36
6198;BME280;3132;42.622;23.328;2023-01-28T10:58:26;92449.97;;;0.39;95.65
6198;BME280;3132;42.622;23.328;2023-01-28T11:00:56;92404.66;;;0.33;95.11
6198;BME280;3132;42.622;23.328;2023-01-28T11:03:22;92432.81;;;0.51;94.96
6198;BME280;3132;42.622;23.328;2023-01-28T11:05:53;92405.00;;;0.71;93.74
6198;BME280;3132;42.622;23.328;2023-01-28T11:08:19;92450.34;;;0.89;93.51
6198;BME280;3132;42.622;23.328;2023-01-28T11:10:46;92436.94;;;0.52;93.58
6198;BME280;3132;42.622;23.328;2023-01-28T11:15:46;92427.09;;;0.38;94.19
6198;BME280;3132;42.622;23.328;2023-01-28T11:18:23;92426.34;;;0.60;93.70
6198;BME280;3132;42.622;23.328;2023-01-28T11:20:55;92445.44;;;0.76;92.28
6198;BME280;3132;42.622;23.328;2023-01-28T11:23:25;92455.16;;;0.74;91.95
6198;BME280;3132;42.622;23.328;2023-01-28T11:26:00;92441.19;;;0.93;93.10
6198;BME280;3132;42.622;23.328;2023-01-28T11:28:26;92446.56;;;0.91;92.97
6198;BME280;3132;42.622;23.328;2023-01-28T11:30:53;92445.09;;;0.84;91.89
6198;BME280;3132;42.622;23.328;2023-01-28T11:33:32;92428.44;;;0.75;91.02
6198;BME280;3132;42.622;23.328;2023-01-28T11:36:30;92445.09;;;0.84;90.70
6198;BME280;3132;42.622;23.328;2023-01-28T11:41:34;92443.75;;;0.81;90.92
6198;BME280;3132;42.622;23.328;2023-01-28T11:44:22;92444.00;;;0.68;90.99
6198;BME280;3132;42.622;23.328;2023-01-28T11:49:29;92440.06;;;1.12;89.09
6198;BME280;3132;42.622;23.328;2023-01-28T11:52:30;92433.34;;;1.11;90.11
6198;BME280;3132;42.622;23.328;2023-01-28T11:55:17;92449.97;;;1.20;88.02
6198;BME280;3132;42.622;23.328;2023-01-28T12:06:14;92443.88;;;0.86;89.05
6198;BME280;3132;42.622;23.328;2023-01-28T12:09:00;92450.78;;;0.97;88.28
6198;BME280;3132;42.622;23.328;2023-01-28T12:23:50;92444.63;;;0.52;90.78
6198;BME280;3132;42.622;23.328;2023-01-28T12:39:33;92445.66;;;0.86;89.91
6198;BME280;3132;42.622;23.328;2023-01-28T12:42:09;92434.16;;;0.65;91.01
6198;BME280;3132;42.622;23.328;2023-01-28T12:44:45;92451.38;;;0.76;89.38
6198;BME280;3132;42.622;23.328;2023-01-28T12:47:40;92452.91;;;1.00;89.80
6198;BME280;3132;42.622;23.328;2023-01-28T12:50:17;92459.25;;;0.75;89.26
6198;BME280;3132;42.622;23.328;2023-01-28T12:53:13;92462.31;;;0.83;89.84
6198;BME280;3132;42.622;23.328;2023-01-28T12:55:46;92463.28;;;0.94;91.06
6198;BME280;3132;42.622;23.328;2023-01-28T12:58:18;92449.44;;;0.60;90.37
6198;BME280;3132;42.622;23.328;2023-01-28T13:00:49;92466.00;;;0.76;91.13
6198;BME280;3132;42.622;23.328;2023-01-28T13:03:37;92469.06;;;0.55;90.69
6198;BME280;3132;42.622;23.328;2023-01-28T13:06:12;92469.69;;;0.68;91.63
6198;BME280;3132;42.622;23.328;2023-01-28T13:08:39;92452.81;;;0.72;90.83
6198;BME280;3132;42.622;23.328;2023-01-28T13:11:11;92475.81;;;0.79;91.22
6198;BME280;3132;42.622;23.328;2023-01-28T13:13:39;92465.84;;;0.59;90.83
6198;BME280;3132;42.622;23.328;2023-01-28T13:16:10;92450.69;;;0.69;91.60
6198;BME280;3132;42.622;23.328;2023-01-28T13:21:05;92468.22;;;0.72;90.74
6198;BME280;3132;42.622;23.328;2023-01-28T13:23:41;92465.94;;;0.41;91.03
6198;BME280;3132;42.622;23.328;2023-01-28T13:28:34;92435.53;;;0.27;90.41
6198;BME280;3132;42.622;23.328;2023-01-28T13:33:36;92489.97;;;0.58;90.93
6198;BME280;3132;42.622;23.328;2023-01-28T13:36:17;92496.59;;;0.89;90.31
6198;BME280;3132;42.622;23.328;2023-01-28T13:38:46;92481.75;;;0.79;90.19
6198;BME280;3132;42.622;23.328;2023-01-28T13:41:11;92490.19;;;1.89;98.99
6198;BME280;3132;42.622;23.328;2023-01-28T13:43:39;92489.78;;;1.17;89.19
6198;BME280;3132;42.622;23.328;2023-01-28T13:46:25;92490.78;;;1.05;88.88
6198;BME280;3132;42.622;23.328;2023-01-28T13:48:54;92508.53;;;0.83;89.29
6198;BME280;3132;42.622;23.328;2023-01-28T13:51:26;92495.56;;;0.78;88.86
6198;BME280;3132;42.622;23.328;2023-01-28T13:54:02;92503.63;;;0.82;90.02
6198;BME280;3132;42.622;23.328;2023-01-28T13:56:55;92496.16;;;0.80;89.85
6198;BME280;3132;42.622;23.328;2023-01-28T14:05:32;92521.38;;;0.60;91.38
6198;BME280;3132;42.622;23.328;2023-01-28T14:10:49;92514.75;;;0.53;92.48
6198;BME280;3132;42.622;23.328;2023-01-28T14:18:40;92456.13;;;-0.03;94.74
6198;BME280;3132;42.622;23.328;2023-01-28T14:21:15;92536.72;;;0.49;94.34
6198;BME280;3132;42.622;23.328;2023-01-28T14:23:46;92532.47;;;0.43;94.81
6198;BME280;3132;42.622;23.328;2023-01-28T14:26:26;92536.75;;;0.19;95.19
6198;BME280;3132;42.622;23.328;2023-01-28T14:29:27;92547.53;;;0.39;96.38
6198;BME280;3132;42.622;23.328;2023-01-28T14:31:57;92547.00;;;0.49;95.86
6198;BME280;3132;42.622;23.328;2023-01-28T14:34:31;92548.25;;;0.58;95.43
6198;BME280;3132;42.622;23.328;2023-01-28T14:37:00;92545.66;;;0.46;94.64
6198;BME280;3132;42.622;23.328;2023-01-28T14:39:30;92549.06;;;0.29;95.17
6198;BME280;3132;42.622;23.328;2023-01-28T14:41:58;92537.69;;;0.36;95.76
6198;BME280;3132;42.622;23.328;2023-01-28T14:44:33;92548.47;;;0.15;96.17
6198;BME280;3132;42.622;23.328;2023-01-28T14:47:14;92556.84;;;0.52;95.79
6198;BME280;3132;42.622;23.328;2023-01-28T14:58:03;92550.31;;;0.08;96.57
6198;BME280;3132;42.622;23.328;2023-01-28T15:00:32;92571.41;;;0.10;96.95
6198;BME280;3132;42.622;23.328;2023-01-28T15:02:58;92573.41;;;0.08;96.00
6198;BME280;3132;42.622;23.328;2023-01-28T15:05:28;92568.38;;;-0.17;97.21
6198;BME280;3132;42.622;23.328;2023-01-28T15:07:54;92537.13;;;-0.43;98.57
6198;BME280;3132;42.622;23.328;2023-01-28T15:10:30;92575.63;;;-0.14;99.13
6198;BME280;3132;42.622;23.328;2023-01-28T15:13:02;92574.66;;;-0.13;99.79
6198;BME280;3132;42.622;23.328;2023-01-28T15:15:35;92568.31;;;-0.10;99.90
6198;BME280;3132;42.622;23.328;2023-01-28T15:18:28;92580.41;;;-0.17;100.00
6198;BME280;3132;42.622;23.328;2023-01-28T15:20:54;92578.16;;;-0.25;100.00
6198;BME280;3132;42.622;23.328;2023-01-28T15:23:25;92581.91;;;-0.28;100.00
6198;BME280;3132;42.622;23.328;2023-01-28T15:25:51;92575.72;;;-0.38;100.00
6198;BME280;3132;42.622;23.328;2023-01-28T15:28:30;92577.50;;;-0.21;100.00
6198;BME280;3132;42.622;23.328;2023-01-28T15:30:56;92580.28;;;-0.40;100.00
6198;BME280;3132;42.622;23.328;2023-01-28T15:33:23;92565.41;;;-0.32;100.00
6198;BME280;3132;42.622;23.328;2023-01-28T15:35:51;92579.63;;;-0.36;100.00
6198;BME280;3132;42.622;23.328;2023-01-28T15:38:17;92585.34;;;-0.34;100.00
6198;BME280;3132;42.622;23.328;2023-01-28T15:40:47;92587.53;;;-0.37;100.00
6198;BME280;3132;42.622;23.328;2023-01-28T15:43:18;92594.09;;;-0.41;100.00
6198;BME280;3132;42.622;23.328;2023-01-28T15:45:46;92578.34;;;-0.45;100.00
6198;BME280;3132;42.622;23.328;2023-01-28T15:48:13;92597.25;;;-0.21;100.00
6198;BME280;3132;42.622;23.328;2023-01-28T15:50:40;92590.97;;;-0.43;100.00
6198;BME280;3132;42.622;23.328;2023-01-28T15:53:09;92579.16;;;-0.44;100.00
6198;BME280;3132;42.622;23.328;2023-01-28T15:55:38;92581.97;;;-0.34;100.00
6198;BME280;3132;42.622;23.328;2023-01-28T15:58:26;92599.66;;;-0.26;100.00
6198;BME280;3132;42.622;23.328;2023-01-28T16:01:02;92606.06;;;-0.35;100.00
6198;BME280;3132;42.622;23.328;2023-01-28T16:03:28;92595.22;;;-0.37;100.00
6198;BME280;3132;42.622;23.328;2023-01-28T16:06:00;92604.50;;;-0.36;100.00
6198;BME280;3132;42.622;23.328;2023-01-28T16:08:36;92620.75;;;-0.42;99.25
6198;BME280;3132;42.622;23.328;2023-01-28T16:11:04;92615.91;;;-0.32;98.30
6198;BME280;3132;42.622;23.328;2023-01-28T16:13:33;92609.44;;;-0.35;99.09
6198;BME280;3132;42.622;23.328;2023-01-28T16:16:01;92610.50;;;-0.42;97.42
6198;BME280;3132;42.622;23.328;2023-01-28T16:18:40;92624.81;;;-0.17;96.77
6198;BME280;3132;42.622;23.328;2023-01-28T16:21:10;92615.34;;;-0.16;95.51
6198;BME280;3132;42.622;23.328;2023-01-28T16:23:37;92629.56;;;-0.20;94.04
6198;BME280;3132;42.622;23.328;2023-01-28T16:26:05;92633.69;;;-0.37;94.99
6198;BME280;3132;42.622;23.328;2023-01-28T16:28:31;92639.41;;;-0.35;95.01
6198;BME280;3132;42.622;23.328;2023-01-28T16:30:57;92633.69;;;-0.37;96.23
6198;BME280;3132;42.622;23.328;2023-01-28T16:33:24;92614.88;;;-0.49;95.18
6198;BME280;3132;42.622;23.328;2023-01-28T16:35:49;92624.28;;;-0.43;95.70
6198;BME280;3132;42.622;23.328;2023-01-28T16:38:16;92619.97;;;-0.43;94.71
6198;BME280;3132;42.622;23.328;2023-01-28T16:40:43;92648.81;;;-0.29;94.83
6198;BME280;3132;42.622;23.328;2023-01-28T16:43:13;92637.56;;;-0.10;95.26
6198;BME280;3132;42.622;23.328;2023-01-28T16:45:42;92636.22;;;-0.13;94.07
6198;BME280;3132;42.622;23.328;2023-01-28T16:48:07;92609.84;;;-0.38;92.89
6198;BME280;3132;42.622;23.328;2023-01-28T16:50:33;92633.28;;;-0.34;92.59
6198;BME280;3132;42.622;23.328;2023-01-28T16:52:59;92585.78;;;-0.55;93.15
6198;BME280;3132;42.622;23.328;2023-01-28T16:55:25;92644.03;;;-0.08;92.62
6198;BME280;3132;42.622;23.328;2023-01-28T16:57:54;92652.47;;;-0.01;91.35
6198;BME280;3132;42.622;23.328;2023-01-28T17:00:24;92627.59;;;-0.18;92.16
6198;BME280;3132;42.622;23.328;2023-01-28T17:02:52;92656.53;;;0.07;92.75
6198;BME280;3132;42.622;23.328;2023-01-28T17:05:19;92649.28;;;-0.14;90.63
6198;BME280;3132;42.622;23.328;2023-01-28T17:07:48;92666.38;;;-0.08;90.84
6198;BME280;3132;42.622;23.328;2023-01-28T17:10:14;92635.56;;;-0.26;91.68
6198;BME280;3132;42.622;23.328;2023-01-28T17:12:41;92665.66;;;0.21;94.03
6198;BME280;3132;42.622;23.328;2023-01-28T17:15:07;92664.53;;;0.17;91.84
6198;BME280;3132;42.622;23.328;2023-01-28T17:17:33;92666.44;;;0.03;90.74
6198;BME280;3132;42.622;23.328;2023-01-28T17:19:58;92652.25;;;0.01;90.60
6198;BME280;3132;42.622;23.328;2023-01-28T17:22:23;92660.38;;;-0.02;91.35
6198;BME280;3132;42.622;23.328;2023-01-28T17:24:49;92669.94;;;0.09;92.62
6198;BME280;3132;42.622;23.328;2023-01-28T17:27:14;92651.75;;;-0.08;90.58
6198;BME280;3132;42.622;23.328;2023-01-28T17:29:40;92675.06;;;0.09;90.52
6198;BME280;3132;42.622;23.328;2023-01-28T17:32:05;92659.53;;;-0.14;90.18
6198;BME280;3132;42.622;23.328;2023-01-28T17:34:30;92676.91;;;0.02;90.32
6198;BME280;3132;42.622;23.328;2023-01-28T17:36:56;92675.28;;;0.08;89.78
6198;BME280;3132;42.622;23.328;2023-01-28T17:39:21;92672.47;;;-0.09;91.02
6198;BME280;3132;42.622;23.328;2023-01-28T17:41:46;92679.41;;;0.09;91.31
6198;BME280;3132;42.622;23.328;2023-01-28T17:44:12;92681.63;;;-0.13;92.37
6198;BME280;3132;42.622;23.328;2023-01-28T17:46:41;92683.22;;;-0.19;93.68
6198;BME280;3132;42.622;23.328;2023-01-28T17:49:06;92686.00;;;-0.20;93.84
6198;BME280;3132;42.622;23.328;2023-01-28T17:51:31;92683.66;;;-0.22;94.10
6198;BME280;3132;42.622;23.328;2023-01-28T17:53:57;92671.31;;;-0.31;94.99
6198;BME280;3132;42.622;23.328;2023-01-28T17:56:25;92689.41;;;-0.26;95.16
6198;BME280;3132;42.622;23.328;2023-01-28T17:58:53;92683.09;;;-0.48;96.45
6198;BME280;3132;42.622;23.328;2023-01-28T18:01:19;92695.78;;;-0.53;97.15
6198;BME280;3132;42.622;23.328;2023-01-28T18:03:45;92674.97;;;-0.63;97.63
6198;BME280;3132;42.622;23.328;2023-01-28T18:06:10;92685.53;;;-0.53;97.97
6198;BME280;3132;42.622;23.328;2023-01-28T18:08:36;92679.63;;;-0.54;97.22
6198;BME280;3132;42.622;23.328;2023-01-28T18:11:01;92676.13;;;-0.59;97.34
6198;BME280;3132;42.622;23.328;2023-01-28T18:13:28;92700.13;;;-0.54;98.01
6198;BME280;3132;42.622;23.328;2023-01-28T18:15:54;92690.06;;;-0.55;97.28
6198;BME280;3132;42.622;23.328;2023-01-28T18:18:20;92666.19;;;-0.74;96.93
6198;BME280;3132;42.622;23.328;2023-01-28T18:20:55;92690.75;;;-0.66;96.88
6198;BME280;3132;42.622;23.328;2023-01-28T18:23:21;92707.13;;;-0.67;96.81
6198;BME280;3132;42.622;23.328;2023-01-28T18:25:46;92703.72;;;-0.61;96.33
6198;BME280;3132;42.622;23.328;2023-01-28T18:28:11;92672.56;;;-0.83;95.52
6198;BME280;3132;42.622;23.328;2023-01-28T18:30:37;92698.59;;;-0.61;93.49
6198;BME280;3132;42.622;23.328;2023-01-28T18:33:02;92708.81;;;-0.55;93.78
6198;BME280;3132;42.622;23.328;2023-01-28T18:35:27;92703.34;;;-0.65;94.37
6198;BME280;3132;42.622;23.328;2023-01-28T18:37:53;92716.72;;;-0.56;93.18
6198;BME280;3132;42.622;23.328;2023-01-28T18:40:18;92695.03;;;-0.60;93.02
6198;BME280;3132;42.622;23.328;2023-01-28T18:42:46;92702.94;;;-0.62;92.76
6198;BME280;3132;42.622;23.328;2023-01-28T18:45:11;92715.03;;;-0.44;92.13
6198;BME280;3132;42.622;23.328;2023-01-28T18:47:36;92705.66;;;-0.57;91.72
6198;BME280;3132;42.622;23.328;2023-01-28T18:50:02;92719.78;;;-0.48;91.31
6198;BME280;3132;42.622;23.328;2023-01-28T18:52:28;92716.59;;;-0.43;91.17
6198;BME280;3132;42.622;23.328;2023-01-28T18:54:53;92713.25;;;-0.44;92.30
6198;BME280;3132;42.622;23.328;2023-01-28T18:57:19;92715.09;;;-0.51;91.87
6198;BME280;3132;42.622;23.328;2023-01-28T18:59:44;92710.63;;;-0.37;91.36
6198;BME280;3132;42.622;23.328;2023-01-28T19:02:12;92696.00;;;-0.55;91.79
6198;BME280;3132;42.622;23.328;2023-01-28T19:04:37;92704.63;;;-0.49;91.10
6198;BME280;3132;42.622;23.328;2023-01-28T19:07:03;92715.44;;;-0.47;91.42
6198;BME280;3132;42.622;23.328;2023-01-28T19:09:28;92683.22;;;-0.61;91.22
6198;BME280;3132;42.622;23.328;2023-01-28T19:11:53;92713.59;;;-0.40;92.01
6198;BME280;3132;42.622;23.328;2023-01-28T19:14:19;92705.81;;;-0.27;93.96
6198;BME280;3132;42.622;23.328;2023-01-28T19:16:45;92705.97;;;-0.47;92.52
6198;BME280;3132;42.622;23.328;2023-01-28T19:19:10;92717.81;;;-0.46;92.84
6198;BME280;3132;42.622;23.328;2023-01-28T19:21:36;92720.63;;;-0.54;93.75
6198;BME280;3132;42.622;23.328;2023-01-28T19:24:04;92709.28;;;-0.64;94.50
6198;BME280;3132;42.622;23.328;2023-01-28T19:26:34;92708.94;;;-0.74;93.91
6198;BME280;3132;42.622;23.328;2023-01-28T19:29:00;92727.31;;;-0.53;94.48
6198;BME280;3132;42.622;23.328;2023-01-28T19:31:26;92722.31;;;-0.66;95.18
6198;BME280;3132;42.622;23.328;2023-01-28T19:33:53;92717.59;;;-0.69;93.52
6198;BME280;3132;42.622;23.328;2023-01-28T19:36:20;92712.50;;;-0.75;94.75
6198;BME280;3132;42.622;23.328;2023-01-28T19:38:45;92739.75;;;0.54;100.00
6198;BME280;3132;42.622;23.328;2023-01-28T19:41:10;92753.19;;;-0.30;92.03
6198;BME280;3132;42.622;23.328;2023-01-28T19:43:41;92753.75;;;-0.52;93.25
6198;BME280;3132;42.622;23.328;2023-01-28T19:46:08;92756.94;;;-0.57;92.93
6198;BME280;3132;42.622;23.328;2023-01-28T19:48:36;92757.81;;;-0.45;93.33
6198;BME280;3132;42.622;23.328;2023-01-28T19:51:06;92757.31;;;-0.53;93.64
6198;BME280;3132;42.622;23.328;2023-01-28T19:53:36;92756.94;;;-0.57;93.01
6198;BME280;3132;42.622;23.328;2023-01-28T19:56:03;92760.84;;;-0.54;92.93
6198;BME280;3132;42.622;23.328;2023-01-28T19:58:32;92755.41;;;-0.64;94.45
6198;BME280;3132;42.622;23.328;2023-01-28T20:01:09;92754.16;;;-0.55;93.90
6198;BME280;3132;42.622;23.328;2023-01-28T20:03:35;92761.47;;;-0.59;93.37
6198;BME280;3132;42.622;23.328;2023-01-28T20:06:04;92763.44;;;-0.61;93.07
6198;BME280;3132;42.622;23.328;2023-01-28T20:08:29;92758.72;;;-0.57;92.56
6198;BME280;3132;42.622;23.328;2023-01-28T20:11:22;92766.19;;;-0.56;92.55
6198;BME280;3132;42.622;23.328;2023-01-28T20:13:48;92762.03;;;-0.50;93.01
6198;BME280;3132;42.622;23.328;2023-01-28T20:16:30;92765.34;;;-0.50;93.08
6198;BME280;3132;42.622;23.328;2023-01-28T20:18:58;92769.97;;;-0.58;92.83
6198;BME280;3132;42.622;23.328;2023-01-28T20:21:24;92762.44;;;-0.53;93.08
6198;BME280;3132;42.622;23.328;2023-01-28T20:23:51;92749.44;;;-0.58;92.91
6198;BME280;3132;42.622;23.328;2023-01-28T20:26:18;92753.50;;;-0.44;93.23
6198;BME280;3132;42.622;23.328;2023-01-28T20:28:46;92765.84;;;-0.59;93.71
6198;BME280;3132;42.622;23.328;2023-01-28T20:31:12;92760.97;;;-0.67;95.27
6198;BME280;3132;42.622;23.328;2023-01-28T20:33:38;92738.97;;;-0.81;94.72
6198;BME280;3132;42.622;23.328;2023-01-28T20:36:09;92759.38;;;-0.68;94.89
6198;BME280;3132;42.622;23.328;2023-01-28T20:38:36;92764.66;;;-0.63;94.82
6198;BME280;3132;42.622;23.328;2023-01-28T20:41:10;92766.13;;;-0.74;94.79
6198;BME280;3132;42.622;23.328;2023-01-28T20:43:36;92765.50;;;-0.69;95.08
6198;BME280;3132;42.622;23.328;2023-01-28T20:46:07;92765.66;;;-0.64;95.13
6198;BME280;3132;42.622;23.328;2023-01-28T20:48:34;92772.31;;;-0.57;95.80
6198;BME280;3132;42.622;23.328;2023-01-28T20:51:06;92759.47;;;-0.81;95.27
6198;BME280;3132;42.622;23.328;2023-01-28T20:53:33;92779.47;;;-0.65;95.52
6198;BME280;3132;42.622;23.328;2023-01-28T20:55:58;92751.59;;;-0.86;95.17
6198;BME280;3132;42.622;23.328;2023-01-28T20:58:24;92780.28;;;-0.71;96.08
6198;BME280;3132;42.622;23.328;2023-01-28T21:00:50;92770.28;;;-0.79;96.29
6198;BME280;3132;42.622;23.328;2023-01-28T21:03:16;92766.91;;;-0.73;96.71
6198;BME280;3132;42.622;23.328;2023-01-28T21:05:43;92771.84;;;-0.72;96.90
6198;BME280;3132;42.622;23.328;2023-01-28T21:08:09;92779.31;;;-0.70;96.42
6198;BME280;3132;42.622;23.328;2023-01-28T21:10:34;92773.63;;;-0.79;96.72
6198;BME280;3132;42.622;23.328;2023-01-28T21:13:00;92777.00;;;-0.78;97.75
6198;BME280;3132;42.622;23.328;2023-01-28T21:15:25;92774.06;;;-0.88;97.71
6198;BME280;3132;42.622;23.328;2023-01-28T21:17:50;92783.16;;;-0.86;97.98
6198;BME280;3132;42.622;23.328;2023-01-28T21:20:16;92777.81;;;-0.84;97.82
6198;BME280;3132;42.622;23.328;2023-01-28T21:22:41;92793.94;;;-0.77;98.38
6198;BME280;3132;42.622;23.328;2023-01-28T21:25:07;92797.91;;;-0.81;98.27
6198;BME280;3132;42.622;23.328;2023-01-28T21:27:32;92764.34;;;-1.04;98.40
6198;BME280;3132;42.622;23.328;2023-01-28T21:30:00;92786.69;;;-0.87;98.45
6198;BME280;3132;42.622;23.328;2023-01-28T21:32:25;92800.72;;;-0.89;99.26
6198;BME280;3132;42.622;23.328;2023-01-28T21:34:50;92803.06;;;-0.88;99.08
6198;BME280;3132;42.622;23.328;2023-01-28T21:37:16;92798.72;;;-0.87;99.71
6198;BME280;3132;42.622;23.328;2023-01-28T21:39:46;92782.13;;;-1.22;100.00
6198;BME280;3132;42.622;23.328;2023-01-28T21:42:12;92750.47;;;-1.28;100.00
6198;BME280;3132;42.622;23.328;2023-01-28T21:44:37;92794.88;;;-1.03;100.00
6198;BME280;3132;42.622;23.328;2023-01-28T21:47:02;92799.59;;;-1.00;100.00
6198;BME280;3132;42.622;23.328;2023-01-28T21:49:28;92795.00;;;-0.98;100.00
6198;BME280;3132;42.622;23.328;2023-01-28T21:51:53;92806.25;;;-0.92;100.00
6198;BME280;3132;42.622;23.328;2023-01-28T21:54:18;92799.78;;;-1.01;100.00
6198;BME280;3132;42.622;23.328;2023-01-28T21:56:45;92811.41;;;-1.05;100.00
6198;BME280;3132;42.622;23.328;2023-01-28T21:59:12;92808.25;;;-1.07;100.00
6198;BME280;3132;42.622;23.328;2023-01-28T22:02:13;92812.81;;;-1.09;100.00
6198;BME280;3132;42.622;23.328;2023-01-28T22:04:40;92806.91;;;-1.16;100.00
6198;BME280;3132;42.622;23.328;2023-01-28T22:07:08;92814.34;;;-1.02;100.00
6198;BME280;3132;42.622;23.328;2023-01-28T22:09:34;92797.50;;;-1.22;100.00
6198;BME280;3132;42.622;23.328;2023-01-28T22:12:01;92793.75;;;-1.20;100.00
6198;BME280;3132;42.622;23.328;2023-01-28T22:14:31;92811.22;;;-1.10;100.00
6198;BME280;3132;42.622;23.328;2023-01-28T22:16:56;92810.44;;;-1.04;100.00
6198;BME280;3132;42.622;23.328;2023-01-28T22:19:22;92815.06;;;-0.88;100.00
6198;BME280;3132;42.622;23.328;2023-01-28T22:21:47;92806.66;;;-0.95;100.00
6198;BME280;3132;42.622;23.328;2023-01-28T22:24:18;92807.47;;;-1.01;100.00
6198;BME280;3132;42.622;23.328;2023-01-28T22:26:45;92811.59;;;-1.00;100.00
6198;BME280;3132;42.622;23.328;2023-01-28T22:29:12;92796.63;;;-1.03;100.00
6198;BME280;3132;42.622;23.328;2023-01-28T22:31:38;92804.91;;;-1.01;100.00
6198;BME280;3132;42.622;23.328;2023-01-28T22:34:03;92793.38;;;-1.23;100.00
6198;BME280;3132;42.622;23.328;2023-01-28T22:36:29;92772.31;;;-1.32;100.00
6198;BME280;3132;42.622;23.328;2023-01-28T22:38:57;92806.09;;;-1.10;100.00
6198;BME280;3132;42.622;23.328;2023-01-28T22:41:22;92802.34;;;-1.01;100.00
6198;BME280;3132;42.622;23.328;2023-01-28T22:43:52;92802.34;;;-1.01;100.00
6198;BME280;3132;42.622;23.328;2023-01-28T22:46:19;92781.47;;;-1.05;100.00
6198;BME280;3132;42.622;23.328;2023-01-28T22:48:45;92791.47;;;-0.97;100.00
6198;BME280;3132;42.622;23.328;2023-01-28T22:51:17;92806.25;;;-0.92;100.00
6198;BME280;3132;42.622;23.328;2023-01-28T22:53:44;92798.19;;;-1.02;100.00
6198;BME280;3132;42.622;23.328;2023-01-28T22:56:11;92772.31;;;-1.32;100.00
6198;BME280;3132;42.622;23.328;2023-01-28T22:58:37;92797.47;;;-1.16;100.00
6198;BME280;3132;42.622;23.328;2023-01-28T23:01:03;92783.66;;;-1.08;100.00
6198;BME280;3132;42.622;23.328;2023-01-28T23:03:28;92787.94;;;-1.02;100.00
6198;BME280;3132;42.622;23.328;2023-01-28T23:06:01;92801.34;;;-1.00;100.00
6198;BME280;3132;42.622;23.328;2023-01-28T23:08:27;92803.91;;;-1.00;100.00
6198;BME280;3132;42.622;23.328;2023-01-28T23:10:53;92785.56;;;-0.97;100.00
6198;BME280;3132;42.622;23.328;2023-01-28T23:13:22;92800.28;;;-0.86;100.00
6198;BME280;3132;42.622;23.328;2023-01-28T23:15:49;92777.59;;;-1.20;100.00
6198;BME280;3132;42.622;23.328;2023-01-28T23:18:33;92804.72;;;-1.06;100.00
6198;BME280;3132;42.622;23.328;2023-01-28T23:21:23;92804.31;;;-1.03;100.00
6198;BME280;3132;42.622;23.328;2023-01-28T23:24:16;92797.16;;;-0.95;100.00
6198;BME280;3132;42.622;23.328;2023-01-28T23:26:59;92791.09;;;-1.00;100.00
6198;BME280;3132;42.622;23.328;2023-01-28T23:29:28;92778.91;;;-1.05;100.00
6198;BME280;3132;42.622;23.328;2023-01-28T23:31:56;92795.06;;;-1.04;100.00
6198;BME280;3132;42.622;23.328;2023-01-28T23:34:43;92795.78;;;-0.91;100.00